sensor_id;sensor_type;location;lat;lon;timestamp;P1;durP1;ratioP1;P2;durP2;ratioP2
8550;SDS011;4313;42.000;21.380;2023-05-29T00:01:10;11.43;;;8.70;;
8550;SDS011;4313;42.000;21.380;2023-05-29T00:03:37;10.30;;;8.20;;
8550;SDS011;4313;42.000;21.380;2023-05-29T00:13:20;11.98;;;8.93;;
8550;SDS011;4313;42.000;21.380;2023-05-29T00:18:48;11.98;;;8.50;;
8550;SDS011;4313;42.000;21.380;2023-05-29T00:21:15;11.73;;;8.02;;
8550;SDS011;4313;42.000;21.380;2023-05-29T00:23:42;11.20;;;8.15;;
8550;SDS011;4313;42.000;21.380;2023-05-29T00:26:09;11.95;;;8.75;;
8550;SDS011;4313;42.000;21.380;2023-05-29T00:28:37;10.55;;;8.02;;
8550;SDS011;4313;42.000;21.380;2023-05-29T00:31:04;9.80;;;8.23;;
8550;SDS011;4313;42.000;21.380;2023-05-29T00:33:43;10.40;;;7.93;;
8550;SDS011;4313;42.000;21.380;2023-05-29T00:41:04;11.05;;;8.63;;
8550;SDS011;4313;42.000;21.380;2023-05-29T00:43:31;9.45;;;8.43;;
8550;SDS011;4313;42.000;21.380;2023-05-29T00:45:58;13.45;;;8.93;;
8550;SDS011;4313;42.000;21.380;2023-05-29T00:48:25;10.32;;;8.65;;
8550;SDS011;4313;42.000;21.380;2023-05-29T00:50:55;10.10;;;8.50;;
8550;SDS011;4313;42.000;21.380;2023-05-29T01:10:07;9.85;;;8.40;;
8550;SDS011;4313;42.000;21.380;2023-05-29T01:12:36;9.93;;;8.30;;
8550;SDS011;4313;42.000;21.380;2023-05-29T01:15:10;9.35;;;8.45;;
8550;SDS011;4313;42.000;21.380;2023-05-29T01:17:47;10.60;;;8.82;;
8550;SDS011;4313;42.000;21.380;2023-05-29T01:20:25;10.57;;;9.13;;
8550;SDS011;4313;42.000;21.380;2023-05-29T01:26:07;9.38;;;8.32;;
8550;SDS011;4313;42.000;21.380;2023-05-29T01:29:08;9.75;;;8.27;;
8550;SDS011;4313;42.000;21.380;2023-05-29T01:31:38;9.52;;;8.45;;
8550;SDS011;4313;42.000;21.380;2023-05-29T01:37:49;9.75;;;8.15;;
8550;SDS011;4313;42.000;21.380;2023-05-29T01:40:16;11.68;;;8.40;;
8550;SDS011;4313;42.000;21.380;2023-05-29T01:42:44;13.30;;;9.05;;
8550;SDS011;4313;42.000;21.380;2023-05-29T01:45:12;9.23;;;8.18;;
8550;SDS011;4313;42.000;21.380;2023-05-29T01:47:40;9.60;;;8.70;;
8550;SDS011;4313;42.000;21.380;2023-05-29T01:50:07;11.80;;;9.05;;
8550;SDS011;4313;42.000;21.380;2023-05-29T01:52:35;11.52;;;8.90;;
8550;SDS011;4313;42.000;21.380;2023-05-29T01:55:03;9.35;;;8.35;;
8550;SDS011;4313;42.000;21.380;2023-05-29T01:57:45;9.98;;;8.73;;
8550;SDS011;4313;42.000;21.380;2023-05-29T02:00:16;9.57;;;8.57;;
8550;SDS011;4313;42.000;21.380;2023-05-29T02:06:26;9.93;;;8.82;;
8550;SDS011;4313;42.000;21.380;2023-05-29T02:14:13;9.30;;;8.30;;
8550;SDS011;4313;42.000;21.380;2023-05-29T02:16:42;11.90;;;8.88;;
8550;SDS011;4313;42.000;21.380;2023-05-29T02:19:09;11.13;;;9.93;;
8550;SDS011;4313;42.000;21.380;2023-05-29T02:21:38;11.20;;;9.55;;
8550;SDS011;4313;42.000;21.380;2023-05-29T02:24:05;10.75;;;9.57;;
8550;SDS011;4313;42.000;21.380;2023-05-29T02:26:34;12.05;;;9.48;;
8550;SDS011;4313;42.000;21.380;2023-05-29T02:29:02;13.02;;;9.23;;
8550;SDS011;4313;42.000;21.380;2023-05-29T02:31:32;10.43;;;9.38;;
8550;SDS011;4313;42.000;21.380;2023-05-29T02:34:00;11.75;;;9.45;;
8550;SDS011;4313;42.000;21.380;2023-05-29T02:36:27;12.40;;;9.27;;
8550;SDS011;4313;42.000;21.380;2023-05-29T02:38:57;12.50;;;9.23;;
8550;SDS011;4313;42.000;21.380;2023-05-29T02:41:24;12.35;;;8.50;;
8550;SDS011;4313;42.000;21.380;2023-05-29T03:04:55;12.52;;;9.68;;
8550;SDS011;4313;42.000;21.380;2023-05-29T03:07:28;11.50;;;10.30;;
8550;SDS011;4313;42.000;21.380;2023-05-29T03:09:55;12.77;;;10.10;;
8550;SDS011;4313;42.000;21.380;2023-05-29T03:12:22;11.27;;;9.77;;
8550;SDS011;4313;42.000;21.380;2023-05-29T03:14:49;11.07;;;9.48;;
8550;SDS011;4313;42.000;21.380;2023-05-29T03:17:16;11.18;;;9.80;;
8550;SDS011;4313;42.000;21.380;2023-05-29T03:19:43;12.52;;;10.82;;
8550;SDS011;4313;42.000;21.380;2023-05-29T03:33:07;12.13;;;10.93;;
8550;SDS011;4313;42.000;21.380;2023-05-29T03:35:53;13.65;;;10.63;;
8550;SDS011;4313;42.000;21.380;2023-05-29T03:38:21;12.90;;;10.82;;
8550;SDS011;4313;42.000;21.380;2023-05-29T03:48:18;11.93;;;10.00;;
8550;SDS011;4313;42.000;21.380;2023-05-29T03:50:48;11.35;;;10.20;;
8550;SDS011;4313;42.000;21.380;2023-05-29T03:53:24;12.15;;;10.18;;
8550;SDS011;4313;42.000;21.380;2023-05-29T03:55:52;12.52;;;11.02;;
8550;SDS011;4313;42.000;21.380;2023-05-29T03:58:19;11.38;;;10.18;;
8550;SDS011;4313;42.000;21.380;2023-05-29T04:00:46;12.88;;;10.40;;
8550;SDS011;4313;42.000;21.380;2023-05-29T04:06:43;13.07;;;11.30;;
8550;SDS011;4313;42.000;21.380;2023-05-29T04:09:10;12.60;;;11.30;;
8550;SDS011;4313;42.000;21.380;2023-05-29T04:11:38;11.93;;;10.32;;
8550;SDS011;4313;42.000;21.380;2023-05-29T04:14:06;11.45;;;10.10;;
8550;SDS011;4313;42.000;21.380;2023-05-29T04:16:33;12.95;;;10.95;;
8550;SDS011;4313;42.000;21.380;2023-05-29T04:19:01;11.10;;;9.48;;
8550;SDS011;4313;42.000;21.380;2023-05-29T04:21:30;12.45;;;9.38;;
8550;SDS011;4313;42.000;21.380;2023-05-29T04:24:01;11.32;;;9.80;;
8550;SDS011;4313;42.000;21.380;2023-05-29T04:26:28;11.95;;;9.48;;
8550;SDS011;4313;42.000;21.380;2023-05-29T04:28:58;11.88;;;9.38;;
8550;SDS011;4313;42.000;21.380;2023-05-29T04:31:26;11.38;;;9.40;;
8550;SDS011;4313;42.000;21.380;2023-05-29T04:33:54;10.38;;;9.23;;
8550;SDS011;4313;42.000;21.380;2023-05-29T04:40:11;11.93;;;9.48;;
8550;SDS011;4313;42.000;21.380;2023-05-29T04:42:43;10.57;;;9.55;;
8550;SDS011;4313;42.000;21.380;2023-05-29T04:45:12;12.63;;;9.50;;
8550;SDS011;4313;42.000;21.380;2023-05-29T04:47:39;12.35;;;8.98;;
8550;SDS011;4313;42.000;21.380;2023-05-29T04:50:11;9.88;;;8.82;;
8550;SDS011;4313;42.000;21.380;2023-05-29T04:52:39;13.98;;;9.20;;
8550;SDS011;4313;42.000;21.380;2023-05-29T04:55:09;14.45;;;9.85;;
8550;SDS011;4313;42.000;21.380;2023-05-29T04:57:43;11.35;;;8.73;;
8550;SDS011;4313;42.000;21.380;2023-05-29T05:00:14;16.38;;;10.00;;
8550;SDS011;4313;42.000;21.380;2023-05-29T05:02:44;11.63;;;9.20;;
8550;SDS011;4313;42.000;21.380;2023-05-29T05:05:12;10.98;;;9.07;;
8550;SDS011;4313;42.000;21.380;2023-05-29T05:10:36;9.60;;;8.35;;
8550;SDS011;4313;42.000;21.380;2023-05-29T05:13:04;9.00;;;8.07;;
8550;SDS011;4313;42.000;21.380;2023-05-29T05:19:14;9.88;;;8.13;;
8550;SDS011;4313;42.000;21.380;2023-05-29T05:21:43;10.57;;;8.27;;
8550;SDS011;4313;42.000;21.380;2023-05-29T05:24:11;10.38;;;8.55;;
8550;SDS011;4313;42.000;21.380;2023-05-29T05:26:40;12.15;;;8.15;;
8550;SDS011;4313;42.000;21.380;2023-05-29T05:29:08;9.52;;;7.60;;
8550;SDS011;4313;42.000;21.380;2023-05-29T05:31:38;14.63;;;9.27;;
8550;SDS011;4313;42.000;21.380;2023-05-29T05:34:07;14.20;;;8.25;;
8550;SDS011;4313;42.000;21.380;2023-05-29T05:36:36;10.63;;;7.97;;
8550;SDS011;4313;42.000;21.380;2023-05-29T05:39:10;12.13;;;8.00;;
8550;SDS011;4313;42.000;21.380;2023-05-29T05:41:43;9.80;;;7.82;;
8550;SDS011;4313;42.000;21.380;2023-05-29T05:44:13;11.15;;;8.10;;
8550;SDS011;4313;42.000;21.380;2023-05-29T05:46:44;10.48;;;7.20;;
8550;SDS011;4313;42.000;21.380;2023-05-29T05:49:11;10.85;;;7.72;;
8550;SDS011;4313;42.000;21.380;2023-05-29T05:51:39;11.73;;;9.23;;
8550;SDS011;4313;42.000;21.380;2023-05-29T05:54:06;10.55;;;7.07;;
8550;SDS011;4313;42.000;21.380;2023-05-29T05:56:33;12.02;;;10.32;;
8550;SDS011;4313;42.000;21.380;2023-05-29T05:59:02;10.75;;;7.53;;
8550;SDS011;4313;42.000;21.380;2023-05-29T06:01:29;12.20;;;8.15;;
8550;SDS011;4313;42.000;21.380;2023-05-29T06:03:57;9.55;;;7.75;;
8550;SDS011;4313;42.000;21.380;2023-05-29T06:06:24;13.73;;;7.72;;
8550;SDS011;4313;42.000;21.380;2023-05-29T06:12:40;11.75;;;6.70;;
8550;SDS011;4313;42.000;21.380;2023-05-29T06:19:01;11.30;;;6.90;;
8550;SDS011;4313;42.000;21.380;2023-05-29T06:25:14;12.73;;;7.13;;
8550;SDS011;4313;42.000;21.380;2023-05-29T06:27:47;9.65;;;6.50;;
8550;SDS011;4313;42.000;21.380;2023-05-29T06:30:37;12.23;;;7.80;;
8550;SDS011;4313;42.000;21.380;2023-05-29T06:33:06;9.43;;;6.90;;
8550;SDS011;4313;42.000;21.380;2023-05-29T06:35:37;10.77;;;6.93;;
8550;SDS011;4313;42.000;21.380;2023-05-29T06:38:04;12.65;;;6.95;;
8550;SDS011;4313;42.000;21.380;2023-05-29T06:40:33;11.82;;;6.85;;
8550;SDS011;4313;42.000;21.380;2023-05-29T06:43:00;10.52;;;7.20;;
8550;SDS011;4313;42.000;21.380;2023-05-29T06:53:32;12.05;;;7.35;;
8550;SDS011;4313;42.000;21.380;2023-05-29T06:55:59;15.45;;;6.85;;
8550;SDS011;4313;42.000;21.380;2023-05-29T06:58:27;10.93;;;7.63;;
8550;SDS011;4313;42.000;21.380;2023-05-29T07:00:54;11.70;;;6.90;;
8550;SDS011;4313;42.000;21.380;2023-05-29T07:03:27;13.90;;;8.38;;
8550;SDS011;4313;42.000;21.380;2023-05-29T07:05:55;8.57;;;7.38;;
8550;SDS011;4313;42.000;21.380;2023-05-29T07:08:25;11.55;;;7.53;;
8550;SDS011;4313;42.000;21.380;2023-05-29T07:10:53;11.02;;;6.93;;
8550;SDS011;4313;42.000;21.380;2023-05-29T07:13:21;9.30;;;6.85;;
8550;SDS011;4313;42.000;21.380;2023-05-29T07:15:48;9.82;;;6.53;;
8550;SDS011;4313;42.000;21.380;2023-05-29T07:18:17;8.90;;;6.78;;
8550;SDS011;4313;42.000;21.380;2023-05-29T07:20:45;11.80;;;6.90;;
8550;SDS011;4313;42.000;21.380;2023-05-29T07:23:15;10.38;;;6.72;;
8550;SDS011;4313;42.000;21.380;2023-05-29T07:25:42;9.43;;;6.40;;
8550;SDS011;4313;42.000;21.380;2023-05-29T07:28:11;9.10;;;6.35;;
8550;SDS011;4313;42.000;21.380;2023-05-29T07:30:38;9.55;;;6.20;;
8550;SDS011;4313;42.000;21.380;2023-05-29T07:33:05;13.80;;;6.75;;
8550;SDS011;4313;42.000;21.380;2023-05-29T07:35:32;11.10;;;7.97;;
8550;SDS011;4313;42.000;21.380;2023-05-29T07:38:00;10.45;;;6.53;;
8550;SDS011;4313;42.000;21.380;2023-05-29T07:40:27;9.55;;;6.82;;
8550;SDS011;4313;42.000;21.380;2023-05-29T07:43:04;10.15;;;5.78;;
8550;SDS011;4313;42.000;21.380;2023-05-29T07:45:53;9.38;;;6.28;;
8550;SDS011;4313;42.000;21.380;2023-05-29T07:48:21;10.80;;;6.05;;
8550;SDS011;4313;42.000;21.380;2023-05-29T07:50:49;8.27;;;6.10;;
8550;SDS011;4313;42.000;21.380;2023-05-29T07:53:17;11.63;;;6.57;;
8550;SDS011;4313;42.000;21.380;2023-05-29T07:55:46;7.75;;;6.13;;
8550;SDS011;4313;42.000;21.380;2023-05-29T07:58:13;9.18;;;6.00;;
8550;SDS011;4313;42.000;21.380;2023-05-29T08:00:43;8.10;;;6.18;;
8550;SDS011;4313;42.000;21.380;2023-05-29T08:03:12;8.65;;;6.13;;
8550;SDS011;4313;42.000;21.380;2023-05-29T08:06:11;9.68;;;6.45;;
8550;SDS011;4313;42.000;21.380;2023-05-29T08:08:39;11.30;;;7.15;;
8550;SDS011;4313;42.000;21.380;2023-05-29T08:11:07;9.55;;;6.10;;
8550;SDS011;4313;42.000;21.380;2023-05-29T08:13:36;8.93;;;6.07;;
8550;SDS011;4313;42.000;21.380;2023-05-29T08:16:04;7.95;;;5.60;;
8550;SDS011;4313;42.000;21.380;2023-05-29T08:18:33;9.93;;;5.82;;
8550;SDS011;4313;42.000;21.380;2023-05-29T08:21:02;8.15;;;6.30;;
8550;SDS011;4313;42.000;21.380;2023-05-29T08:23:32;7.97;;;5.70;;
8550;SDS011;4313;42.000;21.380;2023-05-29T08:25:59;7.95;;;5.20;;
8550;SDS011;4313;42.000;21.380;2023-05-29T08:28:28;10.30;;;6.05;;
8550;SDS011;4313;42.000;21.380;2023-05-29T08:30:55;9.63;;;5.32;;
8550;SDS011;4313;42.000;21.380;2023-05-29T08:33:23;10.65;;;6.03;;
8550;SDS011;4313;42.000;21.380;2023-05-29T08:35:51;11.10;;;5.25;;
8550;SDS011;4313;42.000;21.380;2023-05-29T08:38:20;7.45;;;5.55;;
8550;SDS011;4313;42.000;21.380;2023-05-29T08:40:47;6.35;;;5.25;;
8550;SDS011;4313;42.000;21.380;2023-05-29T08:43:14;6.70;;;5.03;;
8550;SDS011;4313;42.000;21.380;2023-05-29T08:45:44;5.15;;;4.30;;
8550;SDS011;4313;42.000;21.380;2023-05-29T08:48:11;6.38;;;4.72;;
8550;SDS011;4313;42.000;21.380;2023-05-29T08:50:40;5.97;;;4.43;;
8550;SDS011;4313;42.000;21.380;2023-05-29T08:53:12;5.22;;;4.38;;
8550;SDS011;4313;42.000;21.380;2023-05-29T08:55:39;8.07;;;4.68;;
8550;SDS011;4313;42.000;21.380;2023-05-29T08:58:06;8.02;;;5.25;;
8550;SDS011;4313;42.000;21.380;2023-05-29T09:00:33;6.93;;;4.53;;
8550;SDS011;4313;42.000;21.380;2023-05-29T09:03:01;8.63;;;5.40;;
8550;SDS011;4313;42.000;21.380;2023-05-29T09:05:29;9.45;;;5.57;;
8550;SDS011;4313;42.000;21.380;2023-05-29T09:07:56;7.68;;;5.57;;
8550;SDS011;4313;42.000;21.380;2023-05-29T09:10:24;7.93;;;5.03;;
8550;SDS011;4313;42.000;21.380;2023-05-29T09:12:52;7.45;;;5.72;;
8550;SDS011;4313;42.000;21.380;2023-05-29T09:15:21;9.50;;;5.10;;
8550;SDS011;4313;42.000;21.380;2023-05-29T09:17:49;7.90;;;5.10;;
8550;SDS011;4313;42.000;21.380;2023-05-29T09:20:17;7.10;;;5.03;;
8550;SDS011;4313;42.000;21.380;2023-05-29T09:22:52;6.82;;;5.55;;
8550;SDS011;4313;42.000;21.380;2023-05-29T09:25:20;7.72;;;5.25;;
8550;SDS011;4313;42.000;21.380;2023-05-29T09:27:52;8.18;;;5.28;;
8550;SDS011;4313;42.000;21.380;2023-05-29T09:30:33;6.68;;;4.60;;
8550;SDS011;4313;42.000;21.380;2023-05-29T09:33:01;8.73;;;4.78;;
8550;SDS011;4313;42.000;21.380;2023-05-29T09:35:36;7.22;;;5.35;;
8550;SDS011;4313;42.000;21.380;2023-05-29T09:38:05;8.18;;;6.95;;
8550;SDS011;4313;42.000;21.380;2023-05-29T09:40:33;8.10;;;5.03;;
8550;SDS011;4313;42.000;21.380;2023-05-29T09:43:03;9.60;;;4.80;;
8550;SDS011;4313;42.000;21.380;2023-05-29T09:45:33;6.97;;;3.95;;
8550;SDS011;4313;42.000;21.380;2023-05-29T09:48:06;9.98;;;4.53;;
8550;SDS011;4313;42.000;21.380;2023-05-29T09:50:34;6.72;;;4.22;;
8550;SDS011;4313;42.000;21.380;2023-05-29T09:53:01;6.95;;;4.00;;
8550;SDS011;4313;42.000;21.380;2023-05-29T09:55:32;8.23;;;4.13;;
8550;SDS011;4313;42.000;21.380;2023-05-29T09:58:02;6.68;;;4.38;;
8550;SDS011;4313;42.000;21.380;2023-05-29T10:00:31;5.55;;;4.10;;
8550;SDS011;4313;42.000;21.380;2023-05-29T10:02:58;6.57;;;4.10;;
8550;SDS011;4313;42.000;21.380;2023-05-29T10:05:26;5.82;;;4.28;;
8550;SDS011;4313;42.000;21.380;2023-05-29T10:07:54;7.07;;;3.88;;
8550;SDS011;4313;42.000;21.380;2023-05-29T10:10:22;5.47;;;3.53;;
8550;SDS011;4313;42.000;21.380;2023-05-29T10:12:53;4.70;;;3.92;;
8550;SDS011;4313;42.000;21.380;2023-05-29T10:15:22;4.95;;;3.85;;
8550;SDS011;4313;42.000;21.380;2023-05-29T10:17:57;5.40;;;3.88;;
8550;SDS011;4313;42.000;21.380;2023-05-29T10:20:27;6.03;;;4.15;;
8550;SDS011;4313;42.000;21.380;2023-05-29T10:22:55;5.95;;;3.80;;
8550;SDS011;4313;42.000;21.380;2023-05-29T10:25:23;6.18;;;3.80;;
8550;SDS011;4313;42.000;21.380;2023-05-29T10:27:51;4.65;;;4.20;;
8550;SDS011;4313;42.000;21.380;2023-05-29T10:30:24;4.57;;;3.90;;
8550;SDS011;4313;42.000;21.380;2023-05-29T10:35:50;5.05;;;3.95;;
8550;SDS011;4313;42.000;21.380;2023-05-29T10:38:20;6.32;;;3.65;;
8550;SDS011;4313;42.000;21.380;2023-05-29T10:40:49;3.90;;;3.50;;
8550;SDS011;4313;42.000;21.380;2023-05-29T10:43:32;6.38;;;3.67;;
8550;SDS011;4313;42.000;21.380;2023-05-29T10:46:04;4.68;;;3.72;;
8550;SDS011;4313;42.000;21.380;2023-05-29T10:48:40;4.10;;;3.70;;
8550;SDS011;4313;42.000;21.380;2023-05-29T10:51:08;6.47;;;4.00;;
8550;SDS011;4313;42.000;21.380;2023-05-29T10:53:51;7.53;;;5.55;;
8550;SDS011;4313;42.000;21.380;2023-05-29T10:56:20;5.72;;;3.97;;
8550;SDS011;4313;42.000;21.380;2023-05-29T10:58:52;4.40;;;3.55;;
8550;SDS011;4313;42.000;21.380;2023-05-29T11:01:22;4.72;;;3.88;;
8550;SDS011;4313;42.000;21.380;2023-05-29T11:03:50;7.85;;;3.83;;
8550;SDS011;4313;42.000;21.380;2023-05-29T11:06:19;4.85;;;3.42;;
8550;SDS011;4313;42.000;21.380;2023-05-29T11:08:54;5.45;;;3.80;;
8550;SDS011;4313;42.000;21.380;2023-05-29T11:11:31;6.65;;;3.70;;
8550;SDS011;4313;42.000;21.380;2023-05-29T11:14:02;4.70;;;3.55;;
8550;SDS011;4313;42.000;21.380;2023-05-29T11:16:38;5.53;;;3.83;;
8550;SDS011;4313;42.000;21.380;2023-05-29T11:19:06;5.25;;;3.60;;
8550;SDS011;4313;42.000;21.380;2023-05-29T11:21:44;7.20;;;3.65;;
8550;SDS011;4313;42.000;21.380;2023-05-29T11:24:21;5.22;;;3.58;;
8550;SDS011;4313;42.000;21.380;2023-05-29T11:26:50;6.15;;;4.03;;
8550;SDS011;4313;42.000;21.380;2023-05-29T11:29:21;4.57;;;3.88;;
8550;SDS011;4313;42.000;21.380;2023-05-29T11:31:53;4.32;;;3.72;;
8550;SDS011;4313;42.000;21.380;2023-05-29T11:34:23;6.82;;;3.95;;
8550;SDS011;4313;42.000;21.380;2023-05-29T11:36:51;5.15;;;4.28;;
8550;SDS011;4313;42.000;21.380;2023-05-29T11:39:18;7.95;;;4.13;;
8550;SDS011;4313;42.000;21.380;2023-05-29T11:41:49;4.95;;;3.50;;
8550;SDS011;4313;42.000;21.380;2023-05-29T11:44:17;5.25;;;3.88;;
8550;SDS011;4313;42.000;21.380;2023-05-29T11:46:44;6.20;;;3.72;;
8550;SDS011;4313;42.000;21.380;2023-05-29T11:49:13;7.97;;;4.00;;
8550;SDS011;4313;42.000;21.380;2023-05-29T11:52:04;6.28;;;3.70;;
8550;SDS011;4313;42.000;21.380;2023-05-29T11:54:32;5.35;;;4.10;;
8550;SDS011;4313;42.000;21.380;2023-05-29T11:56:59;7.00;;;3.83;;
8550;SDS011;4313;42.000;21.380;2023-05-29T11:59:28;6.43;;;3.72;;
8550;SDS011;4313;42.000;21.380;2023-05-29T12:01:55;7.95;;;4.25;;
8550;SDS011;4313;42.000;21.380;2023-05-29T12:04:24;5.97;;;4.13;;
8550;SDS011;4313;42.000;21.380;2023-05-29T12:06:51;10.82;;;4.63;;
8550;SDS011;4313;42.000;21.380;2023-05-29T12:09:24;5.53;;;3.80;;
8550;SDS011;4313;42.000;21.380;2023-05-29T12:11:53;4.07;;;3.47;;
8550;SDS011;4313;42.000;21.380;2023-05-29T12:14:23;5.72;;;3.88;;
8550;SDS011;4313;42.000;21.380;2023-05-29T12:16:50;6.00;;;4.03;;
8550;SDS011;4313;42.000;21.380;2023-05-29T12:19:17;4.30;;;3.63;;
8550;SDS011;4313;42.000;21.380;2023-05-29T12:21:49;12.18;;;5.75;;
8550;SDS011;4313;42.000;21.380;2023-05-29T12:24:17;6.93;;;5.85;;
8550;SDS011;4313;42.000;21.380;2023-05-29T12:26:44;5.72;;;3.92;;
8550;SDS011;4313;42.000;21.380;2023-05-29T12:29:12;5.90;;;3.75;;
8550;SDS011;4313;42.000;21.380;2023-05-29T12:31:42;4.68;;;3.00;;
8550;SDS011;4313;42.000;21.380;2023-05-29T12:34:10;6.25;;;3.45;;
8550;SDS011;4313;42.000;21.380;2023-05-29T12:36:39;4.43;;;3.40;;
8550;SDS011;4313;42.000;21.380;2023-05-29T12:39:08;5.80;;;3.63;;
8550;SDS011;4313;42.000;21.380;2023-05-29T12:41:36;9.10;;;3.92;;
8550;SDS011;4313;42.000;21.380;2023-05-29T12:44:04;5.70;;;3.60;;
8550;SDS011;4313;42.000;21.380;2023-05-29T12:46:35;6.22;;;3.88;;
8550;SDS011;4313;42.000;21.380;2023-05-29T12:49:11;6.07;;;4.03;;
8550;SDS011;4313;42.000;21.380;2023-05-29T12:51:40;5.63;;;3.47;;
8550;SDS011;4313;42.000;21.380;2023-05-29T12:54:08;4.78;;;3.67;;
8550;SDS011;4313;42.000;21.380;2023-05-29T12:56:36;6.68;;;3.85;;
8550;SDS011;4313;42.000;21.380;2023-05-29T12:59:05;5.93;;;3.20;;
8550;SDS011;4313;42.000;21.380;2023-05-29T13:01:33;6.78;;;3.50;;
8550;SDS011;4313;42.000;21.380;2023-05-29T13:04:00;8.20;;;3.60;;
8550;SDS011;4313;42.000;21.380;2023-05-29T13:06:28;4.70;;;3.28;;
8550;SDS011;4313;42.000;21.380;2023-05-29T13:08:55;4.18;;;3.05;;
8550;SDS011;4313;42.000;21.380;2023-05-29T13:11:24;7.88;;;3.63;;
8550;SDS011;4313;42.000;21.380;2023-05-29T13:13:52;9.85;;;3.33;;
8550;SDS011;4313;42.000;21.380;2023-05-29T13:16:19;4.35;;;3.10;;
8550;SDS011;4313;42.000;21.380;2023-05-29T13:18:46;5.25;;;2.95;;
8550;SDS011;4313;42.000;21.380;2023-05-29T13:21:16;7.05;;;3.03;;
8550;SDS011;4313;42.000;21.380;2023-05-29T13:23:46;3.63;;;2.30;;
8550;SDS011;4313;42.000;21.380;2023-05-29T13:26:13;4.53;;;2.80;;
8550;SDS011;4313;42.000;21.380;2023-05-29T13:28:43;3.33;;;2.60;;
8550;SDS011;4313;42.000;21.380;2023-05-29T13:31:10;4.20;;;2.50;;
8550;SDS011;4313;42.000;21.380;2023-05-29T13:33:39;4.97;;;2.70;;
8550;SDS011;4313;42.000;21.380;2023-05-29T13:36:06;5.68;;;3.20;;
8550;SDS011;4313;42.000;21.380;2023-05-29T13:38:35;4.05;;;3.00;;
8550;SDS011;4313;42.000;21.380;2023-05-29T13:41:02;4.97;;;3.28;;
8550;SDS011;4313;42.000;21.380;2023-05-29T13:43:29;9.10;;;3.40;;
8550;SDS011;4313;42.000;21.380;2023-05-29T13:45:58;5.22;;;3.30;;
8550;SDS011;4313;42.000;21.380;2023-05-29T13:48:25;4.65;;;3.20;;
8550;SDS011;4313;42.000;21.380;2023-05-29T13:50:52;4.45;;;3.08;;
8550;SDS011;4313;42.000;21.380;2023-05-29T13:53:19;5.32;;;2.95;;
8550;SDS011;4313;42.000;21.380;2023-05-29T13:55:46;6.85;;;3.25;;
8550;SDS011;4313;42.000;21.380;2023-05-29T13:58:13;7.57;;;5.88;;
8550;SDS011;4313;42.000;21.380;2023-05-29T14:00:40;4.68;;;3.63;;
8550;SDS011;4313;42.000;21.380;2023-05-29T14:03:09;3.67;;;2.72;;
8550;SDS011;4313;42.000;21.380;2023-05-29T14:05:36;3.95;;;2.70;;
8550;SDS011;4313;42.000;21.380;2023-05-29T14:08:03;7.80;;;3.17;;
8550;SDS011;4313;42.000;21.380;2023-05-29T14:10:30;4.25;;;2.88;;
8550;SDS011;4313;42.000;21.380;2023-05-29T14:12:58;4.03;;;2.97;;
8550;SDS011;4313;42.000;21.380;2023-05-29T14:15:28;4.97;;;3.83;;
8550;SDS011;4313;42.000;21.380;2023-05-29T14:17:55;4.15;;;2.95;;
8550;SDS011;4313;42.000;21.380;2023-05-29T14:20:24;3.70;;;2.80;;
8550;SDS011;4313;42.000;21.380;2023-05-29T14:22:51;5.30;;;4.32;;
8550;SDS011;4313;42.000;21.380;2023-05-29T14:25:18;9.95;;;5.35;;
8550;SDS011;4313;42.000;21.380;2023-05-29T14:27:45;5.43;;;2.92;;
8550;SDS011;4313;42.000;21.380;2023-05-29T14:30:12;6.22;;;3.00;;
8550;SDS011;4313;42.000;21.380;2023-05-29T14:32:40;3.92;;;2.60;;
8550;SDS011;4313;42.000;21.380;2023-05-29T14:35:09;4.07;;;2.20;;
8550;SDS011;4313;42.000;21.380;2023-05-29T14:37:38;3.58;;;2.53;;
8550;SDS011;4313;42.000;21.380;2023-05-29T14:40:05;6.43;;;2.58;;
8550;SDS011;4313;42.000;21.380;2023-05-29T14:42:34;3.78;;;2.70;;
8550;SDS011;4313;42.000;21.380;2023-05-29T14:45:01;3.97;;;2.75;;
8550;SDS011;4313;42.000;21.380;2023-05-29T14:47:28;4.82;;;2.50;;
8550;SDS011;4313;42.000;21.380;2023-05-29T14:49:55;3.53;;;2.50;;
8550;SDS011;4313;42.000;21.380;2023-05-29T14:52:22;3.50;;;2.50;;
8550;SDS011;4313;42.000;21.380;2023-05-29T14:54:51;3.65;;;2.40;;
8550;SDS011;4313;42.000;21.380;2023-05-29T14:57:18;2.92;;;2.65;;
8550;SDS011;4313;42.000;21.380;2023-05-29T14:59:45;3.30;;;2.75;;
8550;SDS011;4313;42.000;21.380;2023-05-29T15:02:12;6.28;;;3.22;;
8550;SDS011;4313;42.000;21.380;2023-05-29T15:04:39;4.78;;;2.95;;
8550;SDS011;4313;42.000;21.380;2023-05-29T15:07:07;5.45;;;3.05;;
8550;SDS011;4313;42.000;21.380;2023-05-29T15:09:34;4.25;;;3.28;;
8550;SDS011;4313;42.000;21.380;2023-05-29T15:12:03;5.80;;;2.70;;
8550;SDS011;4313;42.000;21.380;2023-05-29T15:14:32;4.30;;;2.67;;
8550;SDS011;4313;42.000;21.380;2023-05-29T15:16:59;8.20;;;3.08;;
8550;SDS011;4313;42.000;21.380;2023-05-29T15:19:26;3.75;;;2.85;;
8550;SDS011;4313;42.000;21.380;2023-05-29T15:21:53;5.03;;;2.55;;
8550;SDS011;4313;42.000;21.380;2023-05-29T15:24:20;6.95;;;3.63;;
8550;SDS011;4313;42.000;21.380;2023-05-29T15:26:47;6.32;;;3.40;;
8550;SDS011;4313;42.000;21.380;2023-05-29T15:29:16;8.00;;;3.65;;
8550;SDS011;4313;42.000;21.380;2023-05-29T15:31:43;5.15;;;3.38;;
8550;SDS011;4313;42.000;21.380;2023-05-29T15:34:10;7.07;;;3.58;;
8550;SDS011;4313;42.000;21.380;2023-05-29T15:36:37;4.72;;;3.30;;
8550;SDS011;4313;42.000;21.380;2023-05-29T15:39:05;4.18;;;3.38;;
8550;SDS011;4313;42.000;21.380;2023-05-29T15:41:33;5.70;;;3.25;;
8550;SDS011;4313;42.000;21.380;2023-05-29T15:44:00;5.00;;;3.00;;
8550;SDS011;4313;42.000;21.380;2023-05-29T15:46:29;5.35;;;3.40;;
8550;SDS011;4313;42.000;21.380;2023-05-29T15:48:57;7.60;;;3.50;;
8550;SDS011;4313;42.000;21.380;2023-05-29T15:51:24;5.65;;;3.72;;
8550;SDS011;4313;42.000;21.380;2023-05-29T15:53:51;7.10;;;4.30;;
8550;SDS011;4313;42.000;21.380;2023-05-29T15:56:19;11.00;;;4.47;;
8550;SDS011;4313;42.000;21.380;2023-05-29T15:58:51;6.15;;;3.95;;
8550;SDS011;4313;42.000;21.380;2023-05-29T16:01:19;7.55;;;4.03;;
8550;SDS011;4313;42.000;21.380;2023-05-29T16:03:47;4.55;;;3.58;;
8550;SDS011;4313;42.000;21.380;2023-05-29T16:06:14;5.03;;;3.65;;
8550;SDS011;4313;42.000;21.380;2023-05-29T16:08:42;6.32;;;3.83;;
8550;SDS011;4313;42.000;21.380;2023-05-29T16:11:09;7.07;;;3.85;;
8550;SDS011;4313;42.000;21.380;2023-05-29T16:13:37;6.70;;;3.88;;
8550;SDS011;4313;42.000;21.380;2023-05-29T16:16:04;8.07;;;3.80;;
8550;SDS011;4313;42.000;21.380;2023-05-29T16:18:31;6.65;;;3.88;;
8550;SDS011;4313;42.000;21.380;2023-05-29T16:21:01;4.90;;;3.42;;
8550;SDS011;4313;42.000;21.380;2023-05-29T16:23:28;8.32;;;4.00;;
8550;SDS011;4313;42.000;21.380;2023-05-29T16:25:55;6.90;;;3.90;;
8550;SDS011;4313;42.000;21.380;2023-05-29T16:28:22;8.23;;;4.25;;
8550;SDS011;4313;42.000;21.380;2023-05-29T16:30:50;10.30;;;3.80;;
8550;SDS011;4313;42.000;21.380;2023-05-29T16:33:17;6.53;;;3.60;;
8550;SDS011;4313;42.000;21.380;2023-05-29T16:35:44;4.47;;;3.78;;
8550;SDS011;4313;42.000;21.380;2023-05-29T16:38:14;6.18;;;3.67;;
8550;SDS011;4313;42.000;21.380;2023-05-29T16:40:41;7.80;;;3.42;;
8550;SDS011;4313;42.000;21.380;2023-05-29T16:43:08;5.00;;;3.28;;
8550;SDS011;4313;42.000;21.380;2023-05-29T16:45:35;5.85;;;3.85;;
8550;SDS011;4313;42.000;21.380;2023-05-29T16:48:03;8.15;;;3.60;;
8550;SDS011;4313;42.000;21.380;2023-05-29T16:50:30;7.60;;;3.40;;
8550;SDS011;4313;42.000;21.380;2023-05-29T16:52:57;6.57;;;3.90;;
8550;SDS011;4313;42.000;21.380;2023-05-29T16:55:26;5.30;;;3.60;;
8550;SDS011;4313;42.000;21.380;2023-05-29T16:57:53;5.97;;;3.50;;
8550;SDS011;4313;42.000;21.380;2023-05-29T17:00:20;6.13;;;3.30;;
8550;SDS011;4313;42.000;21.380;2023-05-29T17:02:49;8.43;;;3.40;;
8550;SDS011;4313;42.000;21.380;2023-05-29T17:05:17;4.97;;;3.38;;
8550;SDS011;4313;42.000;21.380;2023-05-29T17:07:44;5.10;;;3.10;;
8550;SDS011;4313;42.000;21.380;2023-05-29T17:10:11;5.75;;;3.42;;